Terminal Aerodrome Forecast
Issued by NWS

Home | Current Version | Previous Version | Text Only | Print | Product List | Glossary On
Versions: 1 2 3 4 5 6 7 8 9 10 11 12 13 14 15 16 17 18 19 20 21 22
000
FTUS43 KAPX 010300 AAA
TAFPLN
TAF AMD
KPLN 010312Z 0103/0124 VRB03KT P6SM OVC020
     FM010700 00000KT 4SM BR OVC010
     FM011500 11006KT P6SM OVC022=

USA.gov is the U.S. government's official web portal to all federal, state and local government web resources and services.